Time;durP1;ratioP1;P1;durP2;ratioP2;P2;SDS_P1;SDS_P2;PMS_P1;PMS_P2;Temp;Humidity;BMP_temperature;BMP_pressure;BME280_temperature;BME280_humidity;BME280_pressure;Samples;Min_cycle;Max_cycle;Signal;HPM_P1;HPM_P2
2024/01/07 00:02:09;;;;;;;0.40;0.40;;;6.00;99.90;;;5.88;99.00;100150.75;4820049;28;24850;-65
2024/01/07 00:04:34;;;;;;;2.60;1.00;;;6.00;99.90;;;5.92;97.79;100150.47;4836529;28;24447;-65
2024/01/07 00:06:56;;;;;;;0.57;0.57;;;6.00;99.90;;;5.89;98.42;100161.03;4835810;28;24851;-63
2024/01/07 00:09:18;;;;;;;0.80;0.80;;;5.90;99.90;;;5.93;98.84;100156.50;4802892;28;25008;-65
2024/01/07 00:11:40;;;;;;;0.30;0.30;;;6.00;99.90;;;5.88;98.90;100161.94;4828211;28;24508;-65
2024/01/07 00:14:02;;;;;;;0.60;0.60;;;6.00;99.90;;;5.93;98.96;100159.91;4829403;28;24989;-65
2024/01/07 00:16:24;;;;;;;0.30;0.30;;;6.00;99.90;;;5.97;97.78;100157.97;4785477;28;24433;-64
2024/01/07 00:18:46;;;;;;;0.50;0.50;;;6.00;99.90;;;5.88;98.88;100161.09;4818462;28;24523;-65
2024/01/07 00:21:08;;;;;;;0.30;0.30;;;6.00;99.90;;;5.70;98.50;100163.03;4807612;28;24490;-64
2024/01/07 00:23:30;;;;;;;0.30;0.30;;;5.90;99.90;;;5.70;98.71;100167.34;4818337;28;24446;-65
2024/01/07 00:25:52;;;;;;;0.30;0.30;;;5.80;99.90;;;5.80;98.04;100163.28;4817050;28;24862;-65
2024/01/07 00:28:14;;;;;;;0.90;0.90;;;5.90;99.90;;;5.77;99.19;100164.31;4816829;28;24536;-65
2024/01/07 00:30:36;;;;;;;0.30;0.30;;;5.90;99.90;;;5.80;97.93;100169.31;4810347;28;25099;-66
2024/01/07 00:32:58;;;;;;;0.30;0.30;;;5.90;99.90;;;5.71;98.53;100166.44;4835245;28;24966;-66
2024/01/07 00:35:21;;;;;;;0.30;0.30;;;5.80;99.90;;;5.70;98.90;100168.19;4829455;28;24440;-65
2024/01/07 00:37:43;;;;;;;0.70;0.70;;;5.80;99.90;;;5.64;99.58;100173.75;4802175;28;24527;-64
2024/01/07 00:40:06;;;;;;;0.40;0.40;;;5.70;99.90;;;5.75;99.09;100173.09;4828514;28;24440;-65
2024/01/07 00:42:28;;;;;;;0.30;0.30;;;5.80;99.90;;;5.80;99.52;100168.47;4817496;28;24504;-64
2024/01/07 00:44:50;;;;;;;0.40;0.40;;;5.80;99.90;;;5.83;98.54;100171.72;4833322;28;24451;-65
2024/01/07 00:47:12;;;;;;;0.40;0.40;;;5.90;99.90;;;5.82;98.15;100179.56;4817730;28;24755;-65
2024/01/07 00:49:34;;;;;;;0.30;0.30;;;5.90;99.90;;;5.83;98.68;100183.84;4794064;28;24991;-65
2024/01/07 00:51:56;;;;;;;0.40;0.40;;;5.90;99.90;;;5.91;98.43;100177.31;4828097;28;24532;-63
2024/01/07 00:54:18;;;;;;;0.30;0.30;;;5.90;99.90;;;5.89;97.30;100184.34;4803524;28;24520;-64
2024/01/07 00:56:40;;;;;;;0.30;0.30;;;5.90;99.90;;;5.85;97.48;100180.28;4828802;28;24515;-65
2024/01/07 00:59:02;;;;;;;0.30;0.30;;;6.00;99.90;;;5.75;97.98;100192.03;4809530;28;24534;-65
2024/01/07 01:01:24;;;;;;;0.30;0.30;;;5.90;99.90;;;5.84;98.08;100193.28;4824553;28;24439;-65
2024/01/07 01:03:46;;;;;;;0.30;0.30;;;5.90;99.90;;;5.93;96.79;100188.41;4835148;28;25018;-65
2024/01/07 01:06:09;;;;;;;0.30;0.30;;;6.00;99.90;;;5.98;97.08;100188.13;4828823;28;24568;-64
2024/01/07 01:08:31;;;;;;;0.30;0.30;;;6.00;99.90;;;5.99;96.92;100193.22;4817189;28;24437;-65
2024/01/07 01:10:52;;;;;;;0.30;0.30;;;6.00;99.90;;;5.92;96.51;100189.31;4817247;28;24839;-64
2024/01/07 01:13:14;;;;;;;0.40;0.40;;;6.00;99.90;;;5.87;96.87;100206.06;4835444;28;24491;-64
2024/01/07 01:15:36;;;;;;;0.30;0.30;;;6.00;99.90;;;5.92;97.24;100191.09;4804833;28;24527;-64
2024/01/07 01:17:59;;;;;;;0.30;0.30;;;6.00;99.90;;;5.90;95.84;100195.53;4812197;28;24523;-63
2024/01/07 01:20:21;;;;;;;0.40;0.40;;;6.00;99.90;;;5.89;96.35;100197.28;4815346;28;24475;-65
2024/01/07 01:22:43;;;;;;;0.30;0.30;;;6.00;99.90;;;5.82;96.74;100205.47;4815559;28;24432;-65
2024/01/07 01:25:06;;;;;;;0.30;0.30;;;5.90;99.90;;;5.68;97.97;100206.28;4813998;28;24454;-65
2024/01/07 01:27:28;;;;;;;0.30;0.30;;;5.80;99.90;;;5.65;98.27;100201.28;4830923;28;25021;-64
2024/01/07 01:29:50;;;;;;;0.30;0.30;;;5.80;99.90;;;5.61;98.25;100204.97;4800358;28;24460;-65
2024/01/07 01:32:12;;;;;;;0.35;0.35;;;5.70;99.90;;;5.67;97.79;100207.19;4829453;28;24448;-65
2024/01/07 01:34:34;;;;;;;0.30;0.30;;;5.70;99.90;;;5.65;97.94;100205.59;4827062;28;24449;-66
2024/01/07 01:36:56;;;;;;;0.30;0.30;;;5.80;99.90;;;5.60;97.72;100208.47;4826994;28;24451;-65
2024/01/07 01:39:18;;;;;;;0.30;0.30;;;5.70;99.90;;;5.62;98.21;100210.97;4826391;28;24621;-65
2024/01/07 01:41:40;;;;;;;0.32;0.32;;;5.70;99.90;;;5.64;97.88;100211.72;4827540;28;24454;-65
2024/01/07 01:44:02;;;;;;;0.30;0.30;;;5.70;99.90;;;5.72;97.95;100207.75;4800207;28;24544;-65
2024/01/07 01:46:24;;;;;;;0.30;0.30;;;5.80;99.90;;;5.67;97.15;100214.97;4835100;28;24487;-65
2024/01/07 01:48:46;;;;;;;1.00;1.00;;;5.80;99.90;;;5.68;97.09;100211.47;4834477;28;24433;-65
2024/01/07 01:51:09;;;;;;;0.30;0.30;;;5.80;99.90;;;5.68;97.36;100214.06;4786876;28;24547;-65
2024/01/07 01:53:32;;;;;;;0.30;0.30;;;5.80;99.90;;;5.69;96.22;100217.44;4817579;28;24814;-65
2024/01/07 01:55:57;;;;;;;0.40;0.40;;;5.80;99.90;;;5.51;96.89;100209.03;4816977;28;24432;-64
2024/01/07 01:58:20;;;;;;;0.30;0.30;;;5.70;99.90;;;5.57;97.53;100218.16;4816749;28;20777;-65
2024/01/07 02:00:44;;;;;;;0.38;0.32;;;5.70;99.90;;;5.56;97.75;100209.56;4796775;28;24450;-64
2024/01/07 02:03:06;;;;;;;0.30;0.30;;;5.70;99.90;;;5.52;97.26;100210.66;4835814;28;24429;-65
2024/01/07 02:05:28;;;;;;;0.30;0.30;;;5.70;99.90;;;5.54;97.64;100219.19;4828302;28;24450;-65
2024/01/07 02:07:52;;;;;;;0.30;0.30;;;5.60;99.90;;;5.60;97.67;100229.16;4818392;28;24456;-64
2024/01/07 02:10:14;;;;;;;0.30;0.30;;;5.70;99.90;;;5.59;96.96;100219.75;4826437;28;20822;-65
2024/01/07 02:12:36;;;;;;;0.30;0.30;;;5.70;99.90;;;5.63;97.01;100210.03;4815713;28;24484;-65
2024/01/07 02:14:58;;;;;;;0.30;0.30;;;5.70;99.90;;;5.53;97.38;100214.94;4815541;28;24458;-65
2024/01/07 02:17:20;;;;;;;0.30;0.30;;;5.70;99.90;;;5.55;97.11;100212.25;4801054;28;24509;-65
2024/01/07 02:19:42;;;;;;;0.30;0.30;;;5.70;99.90;;;5.58;96.51;100219.84;4828359;28;20846;-64
2024/01/07 02:22:04;;;;;;;0.90;0.90;;;5.70;99.90;;;5.62;96.10;100227.34;4825551;28;24425;-65
2024/01/07 02:24:26;;;;;;;0.30;0.30;;;5.70;99.90;;;5.62;96.37;100222.19;4828339;28;24455;-65
2024/01/07 02:26:48;;;;;;;0.30;0.30;;;5.70;99.90;;;5.55;97.14;100226.03;4819785;28;24492;-65
2024/01/07 02:29:10;;;;;;;0.30;0.30;;;5.70;99.90;;;5.53;97.04;100217.53;4831602;28;24444;-65
2024/01/07 02:31:32;;;;;;;0.30;0.30;;;5.70;99.90;;;5.48;97.57;100222.97;4805314;28;24545;-65
2024/01/07 02:33:54;;;;;;;0.60;0.60;;;5.60;99.90;;;5.48;97.53;100228.13;4815236;28;20786;-64
2024/01/07 02:36:16;;;;;;;0.50;0.50;;;5.60;99.90;;;5.51;97.13;100232.31;4838908;28;25025;-65
2024/01/07 02:38:38;;;;;;;0.30;0.30;;;5.60;99.90;;;5.54;97.04;100223.53;4817819;28;20773;-64
2024/01/07 02:41:00;;;;;;;0.30;0.30;;;5.60;99.90;;;5.65;96.87;100231.50;4833162;28;24545;-64
2024/01/07 02:43:22;;;;;;;0.30;0.30;;;5.70;99.90;;;5.59;97.54;100231.84;4837442;28;24507;-64
2024/01/07 02:45:44;;;;;;;0.40;0.40;;;5.70;99.90;;;5.60;96.83;100226.56;4829002;28;25069;-64
2024/01/07 02:48:06;;;;;;;0.40;0.40;;;5.70;99.90;;;5.53;97.56;100222.69;4803936;28;24432;-65
2024/01/07 02:50:28;;;;;;;0.30;0.30;;;5.70;99.90;;;5.56;97.25;100216.53;4813604;28;25082;-64
2024/01/07 02:52:50;;;;;;;0.30;0.30;;;5.70;99.90;;;5.59;97.28;100224.94;4837924;28;24454;-64
2024/01/07 02:55:13;;;;;;;0.30;0.30;;;5.70;99.90;;;5.64;96.52;100225.50;4819836;28;24455;-64
2024/01/07 02:57:35;;;;;;;0.40;0.40;;;5.70;99.90;;;5.67;96.43;100227.91;4833300;28;25245;-65
2024/01/07 02:59:57;;;;;;;0.30;0.30;;;5.70;99.90;;;5.61;97.03;100225.66;4831593;28;24545;-65
2024/01/07 03:02:19;;;;;;;0.30;0.30;;;5.70;99.90;;;5.64;97.10;100228.09;4818759;28;24451;-65
2024/01/07 03:04:41;;;;;;;0.30;0.30;;;5.70;99.90;;;5.74;97.13;100229.22;4837638;28;24435;-65
2024/01/07 03:07:03;;;;;;;0.30;0.30;;;5.80;99.90;;;5.66;97.10;100228.84;4814945;28;24507;-65
2024/01/07 03:09:25;;;;;;;0.30;0.30;;;5.80;99.90;;;5.66;97.42;100228.00;4830568;28;24432;-65
2024/01/07 03:11:47;;;;;;;0.30;0.30;;;5.70;99.90;;;5.73;97.73;100234.50;4837272;28;24460;-65
2024/01/07 03:14:10;;;;;;;0.60;0.60;;;5.80;99.90;;;5.67;97.50;100227.91;4803292;28;24458;-65
2024/01/07 03:16:32;;;;;;;4.00;0.80;;;5.80;99.90;;;5.70;98.07;100224.31;4819483;28;24433;-65
2024/01/07 03:18:54;;;;;;;0.30;0.30;;;5.80;99.90;;;5.69;97.93;100226.06;4814446;28;25049;-65
2024/01/07 03:21:20;;;;;;;0.30;0.30;;;5.80;99.90;;;5.64;98.68;100225.50;4820314;28;24527;-65
2024/01/07 03:23:42;;;;;;;0.60;0.60;;;5.80;99.90;;;5.68;98.40;100233.91;4832974;28;25340;-65
2024/01/07 03:26:04;;;;;;;0.30;0.30;;;5.70;99.90;;;5.72;98.60;100236.25;4819688;28;24452;-65
2024/01/07 03:28:25;;;;;;;0.30;0.30;;;5.80;99.90;;;5.80;98.37;100244.38;4803801;28;24486;-64
2024/01/07 03:30:47;;;;;;;0.30;0.30;;;5.80;99.90;;;5.76;98.14;100247.25;4830624;28;24550;-64
2024/01/07 03:33:10;;;;;;;0.30;0.30;;;5.80;99.90;;;5.72;98.19;100233.66;4819358;28;24444;-63
2024/01/07 03:35:32;;;;;;;0.60;0.60;;;5.80;99.90;;;5.73;98.48;100244.84;4831453;28;24447;-65
2024/01/07 03:37:54;;;;;;;0.30;0.30;;;5.80;99.90;;;5.75;98.22;100243.00;4836149;28;24421;-65
2024/01/07 03:40:16;;;;;;;0.30;0.30;;;5.80;99.90;;;5.73;98.77;100244.84;4835298;28;24499;-65
2024/01/07 03:42:38;;;;;;;0.30;0.30;;;5.80;99.90;;;5.75;98.75;100241.22;4819728;28;24436;-65
2024/01/07 03:45:00;;;;;;;0.57;0.57;;;5.80;99.90;;;5.79;98.38;100247.88;4815831;28;24448;-65
2024/01/07 03:47:22;;;;;;;0.40;0.40;;;5.80;99.90;;;5.81;97.61;100247.81;4819590;28;24425;-65
2024/01/07 03:49:44;;;;;;;0.30;0.30;;;5.90;99.90;;;5.83;98.10;100253.75;4817722;28;24873;-64
2024/01/07 03:52:07;;;;;;;0.30;0.30;;;5.90;99.90;;;5.84;97.60;100253.66;4818619;28;24479;-65
2024/01/07 03:54:29;;;;;;;0.30;0.30;;;5.90;99.90;;;5.81;97.30;100256.44;4818785;28;24436;-65
2024/01/07 03:56:51;;;;;;;0.70;0.70;;;5.90;99.90;;;5.84;97.51;100264.03;4829701;28;24451;-65
2024/01/07 03:59:13;;;;;;;0.30;0.30;;;5.90;99.90;;;5.84;96.92;100258.84;4803863;28;24871;-67
2024/01/07 04:01:35;;;;;;;0.30;0.30;;;5.90;99.90;;;5.75;97.92;100259.34;4813236;28;24521;-65
2024/01/07 04:03:57;;;;;;;0.60;0.60;;;5.90;99.90;;;5.73;97.73;100255.19;4836729;28;20768;-65
2024/01/07 04:06:20;;;;;;;0.40;0.40;;;5.80;99.90;;;5.75;97.99;100264.53;4814345;28;24861;-65
2024/01/07 04:08:42;;;;;;;0.30;0.30;;;5.80;99.90;;;5.74;97.97;100268.03;4837429;28;24432;-65
2024/01/07 04:11:04;;;;;;;0.60;0.60;;;5.80;99.90;;;5.72;98.08;100264.72;4835005;28;24450;-63
2024/01/07 04:13:26;;;;;;;0.30;0.30;;;5.80;99.90;;;5.71;97.97;100268.22;4812804;28;24479;-65
2024/01/07 04:15:48;;;;;;;0.30;0.30;;;5.80;99.90;;;5.72;97.58;100269.88;4812123;28;24477;-65
2024/01/07 04:18:10;;;;;;;0.50;0.50;;;5.80;99.90;;;5.75;97.31;100274.88;4818384;28;24457;-65
2024/01/07 04:20:32;;;;;;;0.30;0.30;;;5.80;99.90;;;5.74;97.79;100269.78;4828290;28;24523;-65
2024/01/07 04:22:54;;;;;;;0.30;0.30;;;5.80;99.90;;;5.67;97.03;100276.25;4815110;28;25011;-65
2024/01/07 04:25:16;;;;;;;0.30;0.30;;;5.80;99.90;;;5.60;98.08;100278.34;4837271;28;24798;-65
2024/01/07 04:27:38;;;;;;;0.65;0.47;;;5.70;99.90;;;5.68;97.23;100276.16;4818254;28;24565;-65
2024/01/07 04:30:01;;;;;;;0.30;0.30;;;5.70;99.90;;;5.74;97.28;100275.81;4836914;28;24551;-64
2024/01/07 04:32:23;;;;;;;0.30;0.30;;;5.80;99.90;;;5.77;96.30;100275.63;4835871;28;24570;-65
2024/01/07 04:34:44;;;;;;;0.30;0.30;;;5.80;99.90;;;5.82;96.74;100281.38;4837350;28;24520;-64
2024/01/07 04:37:06;;;;;;;0.30;0.30;;;5.90;99.90;;;5.79;97.23;100281.53;4835273;28;24532;-64
2024/01/07 04:39:28;;;;;;;0.30;0.30;;;5.90;99.90;;;5.81;96.91;100286.66;4831339;28;24630;-65
2024/01/07 04:41:50;;;;;;;0.45;0.38;;;5.80;99.90;;;5.83;96.44;100283.06;4830400;28;24444;-64
2024/01/07 04:44:12;;;;;;;0.95;0.50;;;5.90;99.90;;;5.89;96.37;100282.72;4826910;28;24436;-65
2024/01/07 04:46:38;;;;;;;0.30;0.30;;;5.90;99.90;;;5.89;96.17;100287.91;4835402;28;24441;-64
2024/01/07 04:49:00;;;;;;;0.47;0.47;;;5.90;99.90;;;5.92;96.44;100286.91;4812661;28;25004;-64
2024/01/07 04:51:22;;;;;;;0.30;0.30;;;6.00;99.90;;;5.93;95.95;100289.38;4826916;28;24467;-64
2024/01/07 04:53:44;;;;;;;0.30;0.30;;;6.00;99.90;;;5.93;96.68;100291.97;4835347;28;24964;-64
2024/01/07 04:56:06;;;;;;;0.30;0.30;;;6.00;99.90;;;5.98;96.76;100291.72;4805704;28;24445;-65
2024/01/07 04:58:28;;;;;;;0.30;0.30;;;6.00;99.90;;;5.92;96.16;100298.06;4810732;28;25041;-65
2024/01/07 05:00:50;;;;;;;0.30;0.30;;;6.00;99.90;;;5.94;96.81;100295.41;4800005;28;25041;-64
2024/01/07 05:03:12;;;;;;;0.30;0.30;;;6.00;99.90;;;5.92;96.40;100295.47;4817029;28;25005;-64
2024/01/07 05:05:36;;;;;;;0.30;0.30;;;6.00;99.90;;;5.99;96.24;100294.22;4824123;28;24494;-64
2024/01/07 05:08:00;;;;;;;0.30;0.30;;;6.00;99.90;;;6.06;96.57;100292.94;4835737;28;24456;-65
2024/01/07 05:10:22;;;;;;;0.30;0.30;;;6.10;99.90;;;6.08;95.72;100287.66;4836279;28;20799;-64
2024/01/07 05:12:44;;;;;;;0.30;0.30;;;6.10;99.90;;;6.08;96.11;100296.28;4813552;28;24489;-65
2024/01/07 05:15:07;;;;;;;0.30;0.30;;;6.20;99.90;;;6.04;95.11;100297.38;4801769;28;24539;-65
2024/01/07 05:17:29;;;;;;;0.60;0.60;;;6.10;99.90;;;6.01;95.24;100301.88;4812839;28;24512;-64
2024/01/07 05:19:51;;;;;;;0.30;0.30;;;6.10;99.90;;;5.97;95.79;100301.22;4816872;28;24525;-64
2024/01/07 05:22:13;;;;;;;0.50;0.50;;;6.10;99.90;;;5.94;96.38;100306.56;4793741;28;24802;-64
2024/01/07 05:24:39;;;;;;;0.30;0.30;;;6.00;99.90;;;5.87;96.03;100313.06;4832394;28;24524;-64
2024/01/07 05:27:01;;;;;;;0.30;0.30;;;6.00;99.90;;;5.85;96.55;100309.72;4832087;28;24440;-64
2024/01/07 05:29:22;;;;;;;0.30;0.30;;;5.90;99.90;;;5.81;96.53;100315.97;4828397;28;24564;-64
2024/01/07 05:31:44;;;;;;;0.30;0.30;;;5.90;99.90;;;5.81;95.81;100320.31;4817078;28;24927;-63
2024/01/07 05:34:07;;;;;;;0.30;0.30;;;5.90;99.90;;;5.67;97.32;100318.50;4830308;28;26942;-64
2024/01/07 05:36:29;;;;;;;0.90;0.90;;;5.80;99.90;;;5.77;97.15;100327.38;4823570;28;24433;-64
2024/01/07 05:38:51;;;;;;;0.30;0.30;;;5.80;99.90;;;5.74;97.39;100319.81;4817321;28;24431;-62
2024/01/07 05:41:13;;;;;;;0.30;0.30;;;5.80;99.90;;;5.76;96.87;100320.56;4812393;28;24463;-64
2024/01/07 05:43:37;;;;;;;0.30;0.30;;;5.80;99.90;;;5.75;97.09;100329.22;4835412;28;24460;-64
2024/01/07 05:45:58;;;;;;;0.30;0.30;;;5.80;99.90;;;5.72;98.12;100329.44;4834302;28;24871;-64
2024/01/07 05:48:23;;;;;;;0.30;0.30;;;5.80;99.90;;;5.75;97.16;100331.81;4801378;28;20803;-64
2024/01/07 05:50:45;;;;;;;0.60;0.60;;;5.80;99.90;;;5.76;97.21;100333.50;4835344;28;21387;-64
2024/01/07 05:53:07;;;;;;;0.30;0.30;;;5.90;99.90;;;5.72;98.21;100336.34;4818207;28;20781;-64
2024/01/07 05:55:29;;;;;;;0.40;0.40;;;5.80;99.90;;;5.69;98.08;100331.34;4833209;28;25041;-64
2024/01/07 05:57:51;;;;;;;0.30;0.30;;;5.80;99.90;;;5.75;97.60;100344.75;4801149;28;24512;-62
2024/01/07 06:00:14;;;;;;;0.30;0.30;;;5.80;99.90;;;5.76;97.77;100343.88;4830138;28;24532;-63
2024/01/07 06:02:36;;;;;;;0.40;0.40;;;5.80;99.90;;;5.73;97.52;100344.03;4819802;28;20869;-66
2024/01/07 06:04:58;;;;;;;0.30;0.30;;;5.80;99.90;;;5.70;97.46;100349.38;4838054;28;24516;-64
2024/01/07 06:07:20;;;;;;;0.90;0.90;;;5.80;99.90;;;5.74;97.02;100348.28;4834747;28;24535;-64
2024/01/07 06:09:42;;;;;;;0.30;0.30;;;5.80;99.90;;;5.75;97.66;100344.75;4833064;28;24491;-65
2024/01/07 06:12:04;;;;;;;0.30;0.30;;;5.80;99.90;;;5.71;97.10;100351.03;4808225;28;20893;-64
2024/01/07 06:14:27;;;;;;;0.30;0.30;;;5.80;99.90;;;5.76;98.27;100343.03;4794254;28;20780;-65
2024/01/07 06:16:48;;;;;;;0.30;0.30;;;5.80;99.90;;;5.79;97.66;100356.63;4810774;28;24467;-65
2024/01/07 06:19:10;;;;;;;0.30;0.30;;;5.80;99.90;;;5.72;98.05;100357.06;4825767;28;24524;-64
2024/01/07 06:21:32;;;;;;;0.32;0.32;;;5.80;99.90;;;5.71;98.25;100361.41;4837393;28;24498;-65
2024/01/07 06:23:55;;;;;;;0.30;0.30;;;5.80;99.90;;;5.71;98.65;100358.00;4817589;28;24468;-64
2024/01/07 06:26:17;;;;;;;0.40;0.40;;;5.80;99.90;;;5.69;97.47;100357.22;4834133;28;20822;-64
2024/01/07 06:28:38;;;;;;;0.50;0.50;;;5.70;99.90;;;5.64;98.34;100360.09;4805769;28;24455;-63
2024/01/07 06:31:04;;;;;;;0.30;0.30;;;5.80;99.90;;;5.61;97.65;100357.66;4819264;28;24979;-65
2024/01/07 06:33:26;;;;;;;0.30;0.30;;;5.70;99.90;;;5.65;98.29;100368.66;4831799;28;20809;-64
2024/01/07 06:35:48;;;;;;;0.30;0.30;;;5.70;99.90;;;5.68;97.34;100377.13;4820744;28;24440;-64
2024/01/07 06:38:10;;;;;;;0.80;0.60;;;5.70;99.90;;;5.74;97.71;100373.34;4820230;28;24832;-65
2024/01/07 06:40:32;;;;;;;0.30;0.30;;;5.80;99.90;;;5.75;97.14;100375.84;4829627;28;24602;-64
2024/01/07 06:42:54;;;;;;;0.43;0.43;;;5.80;99.90;;;5.66;97.14;100384.13;4818216;28;24456;-63
2024/01/07 06:45:17;;;;;;;0.40;0.40;;;5.80;99.90;;;5.64;97.92;100380.81;4819730;28;24441;-64
2024/01/07 06:47:39;;;;;;;0.32;0.32;;;5.80;99.90;;;5.58;97.36;100378.53;4832342;28;25014;-64
2024/01/07 06:50:01;;;;;;;0.30;0.30;;;5.70;99.90;;;5.63;98.03;100392.06;4827149;28;24459;-65
2024/01/07 06:52:23;;;;;;;0.38;0.38;;;5.70;99.90;;;5.64;98.33;100380.81;4825916;28;24458;-64
2024/01/07 06:54:45;;;;;;;0.70;0.70;;;5.70;99.90;;;5.64;97.54;100401.50;4804011;28;24525;-65
2024/01/07 06:57:07;;;;;;;0.90;0.40;;;5.70;99.90;;;5.60;97.37;100394.00;4830194;28;24866;-64
2024/01/07 06:59:28;;;;;;;0.30;0.30;;;5.70;99.90;;;5.64;97.46;100401.50;4819045;28;24428;-65
2024/01/07 07:01:50;;;;;;;0.50;0.50;;;5.70;99.90;;;5.72;96.78;100407.09;4832478;28;25044;-64
2024/01/07 07:04:12;;;;;;;0.30;0.30;;;5.80;99.90;;;5.59;97.85;100413.00;4813769;28;24557;-65
2024/01/07 07:06:35;;;;;;;0.30;0.30;;;5.70;99.90;;;5.61;97.26;100414.59;4822563;28;24620;-65
2024/01/07 07:08:57;;;;;;;0.40;0.40;;;5.70;99.90;;;5.68;98.16;100412.50;4834214;28;24494;-64
2024/01/07 07:11:19;;;;;;;0.30;0.30;;;5.70;99.90;;;5.65;97.46;100413.50;4825109;28;25012;-64
2024/01/07 07:13:41;;;;;;;0.30;0.30;;;5.70;99.90;;;5.71;96.76;100422.72;4817577;28;24966;-64
2024/01/07 07:16:03;;;;;;;0.82;0.82;;;5.80;99.90;;;5.73;96.76;100429.44;4836912;28;24436;-65
2024/01/07 07:18:26;;;;;;;3.70;1.20;;;5.80;99.90;;;5.70;96.56;100434.81;4827746;28;24435;-63
2024/01/07 07:20:48;;;;;;;0.30;0.30;;;5.80;99.90;;;5.69;97.19;100425.38;4819867;28;24537;-67
2024/01/07 07:23:09;;;;;;;0.30;0.30;;;5.80;99.90;;;5.68;97.16;100431.47;4809868;28;24574;-64
2024/01/07 07:25:31;;;;;;;0.30;0.30;;;5.80;99.90;;;5.67;96.83;100431.53;4832885;28;25053;-64
2024/01/07 07:27:55;;;;;;;1.20;0.80;;;5.80;99.90;;;5.69;97.33;100427.94;4834497;28;25088;-64
2024/01/07 07:30:18;;;;;;;0.30;0.30;;;5.80;99.90;;;5.74;96.88;100438.91;4836034;28;24475;-65
2024/01/07 07:32:44;;;;;;;1.30;0.60;;;5.80;99.90;;;5.71;95.89;100436.47;4830943;28;24572;-65
2024/01/07 07:35:07;;;;;;;0.30;0.30;;;5.80;99.90;;;5.71;96.62;100454.59;4807518;28;24424;-64
2024/01/07 07:37:29;;;;;;;0.40;0.40;;;5.80;99.90;;;5.65;96.35;100454.09;4836299;28;24432;-66
2024/01/07 07:39:51;;;;;;;0.30;0.30;;;5.80;99.90;;;5.67;96.93;100460.00;4818565;28;25459;-63
2024/01/07 07:42:13;;;;;;;0.30;0.30;;;5.70;99.90;;;5.66;95.91;100461.78;4825566;28;20814;-65
2024/01/07 07:44:35;;;;;;;0.30;0.30;;;5.80;99.90;;;5.67;96.33;100463.44;4819222;28;24576;-65
2024/01/07 07:46:57;;;;;;;0.30;0.30;;;5.80;99.90;;;5.68;95.62;100464.28;4827788;28;24443;-64
2024/01/07 07:49:19;;;;;;;1.30;0.90;;;5.80;99.90;;;5.72;95.35;100452.84;4811565;28;24461;-64
2024/01/07 07:51:41;;;;;;;0.60;0.60;;;5.80;99.90;;;5.71;93.86;100467.53;4813135;28;25011;-66
2024/01/07 07:54:03;;;;;;;0.30;0.30;;;5.80;99.90;;;5.75;94.18;100468.22;4803817;28;24432;-66
2024/01/07 07:56:25;;;;;;;0.30;0.30;;;5.80;99.90;;;5.73;93.81;100477.81;4826853;28;24998;-65
2024/01/07 07:58:47;;;;;;;0.40;0.40;;;5.80;99.90;;;5.64;94.14;100481.75;4800198;28;25053;-65
2024/01/07 08:01:09;;;;;;;0.30;0.30;;;5.70;99.90;;;5.68;93.34;100475.47;4800228;28;24490;-64
2024/01/07 08:03:31;;;;;;;0.40;0.40;;;5.70;99.90;;;5.68;94.00;100485.84;4816278;28;24499;-66
2024/01/07 08:05:53;;;;;;;0.30;0.30;;;5.80;99.90;;;5.70;93.32;100478.81;4817648;28;24519;-66
2024/01/07 08:08:18;;;;;;;0.30;0.30;;;5.80;99.90;;;5.71;93.02;100480.47;4819688;28;24456;-64
2024/01/07 08:10:40;;;;;;;0.50;0.50;;;5.80;99.90;;;5.64;92.39;100493.84;4816483;28;24854;-64
2024/01/07 08:13:02;;;;;;;0.30;0.30;;;5.80;99.90;;;5.58;93.73;100495.00;4813847;28;24547;-63
2024/01/07 08:15:26;;;;;;;0.40;0.40;;;5.70;99.90;;;5.57;92.87;100490.75;4823578;28;24429;-66
2024/01/07 08:17:48;;;;;;;0.50;0.50;;;5.70;99.90;;;5.58;94.10;100501.94;4822870;28;25024;-65
2024/01/07 08:20:10;;;;;;;1.20;0.60;;;5.70;99.90;;;5.59;93.45;100496.66;4813319;28;24456;-65
2024/01/07 08:22:32;;;;;;;1.50;1.40;;;5.70;99.90;;;5.55;93.30;100504.69;4829296;28;24440;-66
2024/01/07 08:24:54;;;;;;;0.50;0.50;;;5.70;99.90;;;5.53;93.96;100512.53;4823881;28;25245;-64
2024/01/07 08:27:17;;;;;;;1.50;1.00;;;5.60;99.90;;;5.51;94.02;100509.19;4807032;28;24436;-64
2024/01/07 08:29:39;;;;;;;0.30;0.30;;;5.60;99.90;;;5.56;93.68;100508.94;4804529;28;24479;-64
2024/01/07 08:32:01;;;;;;;0.30;0.30;;;5.60;99.90;;;5.51;93.79;100515.19;4815995;28;24448;-65
2024/01/07 08:34:23;;;;;;;0.30;0.30;;;5.60;99.90;;;5.53;93.72;100528.06;4829035;28;24532;-64
2024/01/07 08:36:45;;;;;;;0.30;0.30;;;5.60;99.90;;;5.50;93.78;100518.69;4836587;28;21379;-64
2024/01/07 08:39:11;;;;;;;0.30;0.30;;;5.60;99.90;;;5.52;92.71;100523.78;4810294;28;24429;-64
2024/01/07 08:41:33;;;;;;;0.30;0.30;;;5.60;99.90;;;5.54;92.18;100536.66;4797228;28;24455;-64
2024/01/07 08:43:55;;;;;;;0.30;0.30;;;5.60;99.90;;;5.55;91.18;100531.41;4812610;28;24449;-62
2024/01/07 08:46:17;;;;;;;0.30;0.30;;;5.70;99.90;;;5.48;90.75;100549.00;4803131;28;24452;-63
2024/01/07 08:48:38;;;;;;;0.77;0.77;;;5.60;99.90;;;5.47;90.86;100538.75;4828560;28;24504;-64
2024/01/07 08:51:01;;;;;;;0.30;0.30;;;5.60;99.90;;;5.51;90.31;100545.41;4817047;28;24500;-64
2024/01/07 08:53:22;;;;;;;0.45;0.45;;;5.60;99.90;;;5.41;90.05;100544.22;4817787;28;24488;-65
2024/01/07 08:55:48;;;;;;;4.55;3.95;;;5.60;99.90;;;5.38;89.24;100545.22;4810134;28;24440;-65
2024/01/07 08:58:10;;;;;;;8.25;6.85;;;5.50;99.90;;;5.41;90.04;100545.03;4776714;28;25130;-64
2024/01/07 09:00:32;;;;;;;10.10;7.70;;;5.50;99.90;;;5.35;89.82;100560.91;4821766;28;20803;-67
2024/01/07 09:02:54;;;;;;;9.93;8.10;;;5.50;99.90;;;5.32;90.79;100555.88;4797616;28;24448;-63
2024/01/07 09:05:16;;;;;;;9.38;7.05;;;5.40;99.90;;;5.33;89.89;100559.28;4800888;28;24453;-66
2024/01/07 09:07:38;;;;;;;9.00;7.68;;;5.40;99.90;;;5.36;89.75;100570.34;4799160;28;24511;-65
2024/01/07 09:10:01;;;;;;;9.27;6.45;;;5.50;99.90;;;5.33;89.75;100572.22;4798592;28;20848;-65
2024/01/07 09:12:23;;;;;;;9.90;7.38;;;5.40;99.90;;;5.36;90.71;100565.16;4804763;28;25003;-65
2024/01/07 09:14:45;;;;;;;10.77;7.25;;;5.40;99.90;;;5.41;91.22;100573.50;4794774;28;20828;-62
2024/01/07 09:17:07;;;;;;;10.38;7.20;;;5.50;99.90;;;5.32;90.41;100575.75;4833068;28;25035;-65
2024/01/07 09:19:29;;;;;;;9.75;7.72;;;5.50;99.90;;;5.35;89.99;100580.75;4826795;28;20820;-65
2024/01/07 09:21:52;;;;;;;9.95;7.13;;;5.40;99.90;;;5.36;90.07;100583.28;4833515;28;24535;-66
2024/01/07 09:24:14;;;;;;;9.07;6.57;;;5.50;99.90;;;5.34;89.68;100571.34;4790097;28;20791;-64
2024/01/07 09:26:37;;;;;;;9.38;7.30;;;5.40;99.90;;;5.41;89.16;100583.88;4825313;28;20827;-65
2024/01/07 09:28:59;;;;;;;10.88;8.05;;;5.50;99.90;;;5.31;90.09;100595.59;4809630;28;24512;-65
2024/01/07 09:31:21;;;;;;;8.70;7.10;;;5.50;99.90;;;5.30;89.15;100598.28;4814849;28;20897;-65
2024/01/07 09:33:43;;;;;;;9.50;7.60;;;5.40;99.90;;;5.37;90.01;100602.22;4838285;28;24540;-64
2024/01/07 09:36:07;;;;;;;8.63;6.50;;;5.50;99.90;;;5.40;90.10;100599.47;4832973;28;21346;-64
2024/01/07 09:38:46;;;;;;;9.32;7.50;;;5.50;99.90;;;5.41;89.22;100606.31;4831578;28;21349;-64
2024/01/07 09:41:08;;;;;;;9.50;7.60;;;5.50;99.90;;;5.40;89.58;100600.31;4833719;28;24982;-64
2024/01/07 09:43:30;;;;;;;9.95;7.07;;;5.50;99.90;;;5.44;89.17;100598.41;4826483;28;24577;-65
2024/01/07 09:45:58;;;;;;;8.30;7.40;;;5.50;99.90;;;5.44;88.50;100603.56;4831539;28;24455;-62
2024/01/07 09:48:21;;;;;;;8.13;6.95;;;5.50;99.90;;;5.49;87.57;100596.44;4835767;28;21370;-64
2024/01/07 09:50:43;;;;;;;8.90;7.07;;;5.60;99.90;;;5.48;87.10;100602.50;4818350;28;25042;-64
2024/01/07 09:53:16;;;;;;;9.63;6.82;;;5.60;99.90;;;5.48;86.74;100603.34;4812911;28;20859;-63
2024/01/07 09:55:59;;;;;;;7.88;6.10;;;5.60;99.90;;;5.55;87.39;100608.19;4820165;28;24530;-64
2024/01/07 09:58:25;;;;;;;8.25;7.28;;;5.60;99.90;;;5.55;87.46;100614.22;4807773;28;20929;-64
2024/01/07 10:00:47;;;;;;;8.70;6.95;;;5.60;99.90;;;5.58;86.42;100621.81;4816732;28;20858;-64
2024/01/07 10:03:09;;;;;;;9.70;6.20;;;5.70;99.90;;;5.59;85.76;100607.97;4790287;28;24479;-64
2024/01/07 10:05:31;;;;;;;8.10;6.88;;;5.70;99.90;;;5.56;85.60;100621.06;4835787;28;24436;-63